Boston, Massachusetts
Traffic Map
Current Weather Conditions
Boston, Massachusetts
Overcast Light Snow
Overcast

Feels Like: -4°
Wind Chill: -4° Ceiling: 1100
Heat Index: Visibility: 2mi
Dew Point: -1° Wind: 15mph
Humidity: 89% Direction: 340° (NNW)
Pressure: 29.69in Gusts: 25mph
Raw Report DataKBOS 270454Z 34013G22KT 2SM -RASN BR BKN011 OVC017 01/M01 A2969 RMK AO2 PK WND 36029/0404 SFC VIS 4 RAB29 SLP052 P0000 T00111006 401000006 $
Traffic Incident Summary
Active as of:
Severity:
Category:
InformationThere was an issue retrieving the traffic information for this location. Please try a different location or try again shortly.
Advertisements
Track Severe Weather on mobile